Time;durP1;ratioP1;P1;durP2;ratioP2;P2;SDS_P1;SDS_P2;PMS_P1;PMS_P2;Temp;Humidity;BMP_temperature;BMP_pressure;BME280_temperature;BME280_humidity;BME280_pressure;Samples;Min_cycle;Max_cycle;Signal;HPM_P1;HPM_P2
2023/05/19 00:04:04;;;;;;;9.87;9.37;;;13.90;99.90;;;;;;4876588;29;20470;-86
2023/05/19 00:06:58;;;;;;;10.37;9.77;;;13.90;99.90;;;;;;4876815;29;20494;-85
2023/05/19 00:12:49;;;;;;;10.40;9.90;;;13.90;99.90;;;;;;4865771;29;20485;-86
2023/05/19 00:15:53;;;;;;;9.97;9.50;;;13.90;99.90;;;;;;4863279;29;20850;-86
2023/05/19 00:18:40;;;;;;;9.60;9.20;;;13.90;99.90;;;;;;4867119;29;20461;-86
2023/05/19 00:21:19;;;;;;;9.70;9.30;;;13.80;99.90;;;;;;4870729;29;20497;-84
2023/05/19 00:24:00;;;;;;;10.53;9.70;;;13.70;99.90;;;;;;4871879;29;20701;-86
2023/05/19 00:26:34;;;;;;;10.10;9.53;;;13.70;99.90;;;;;;4874739;29;20561;-86
2023/05/19 00:29:26;;;;;;;11.00;10.10;;;13.70;99.90;;;;;;4876353;29;20464;-86
2023/05/19 00:32:34;;;;;;;10.80;10.20;;;13.60;99.90;;;;;;4878730;29;20468;-84
2023/05/19 00:35:20;;;;;;;9.60;9.20;;;13.60;99.90;;;;;;4856497;29;20471;-85
2023/05/19 00:38:01;;;;;;;9.77;9.17;;;13.50;99.90;;;;;;4875609;29;20496;-84
2023/05/19 00:40:44;;;;;;;9.90;9.30;;;13.50;99.90;;;;;;4875340;29;20482;-85
2023/05/19 00:43:28;;;;;;;10.40;9.70;;;13.50;99.90;;;;;;4859901;29;20470;-85
2023/05/19 00:46:19;;;;;;;9.70;9.00;;;13.50;99.90;;;;;;4875937;29;20983;-85
2023/05/19 00:49:01;;;;;;;9.60;9.00;;;13.50;99.90;;;;;;4877409;29;20460;-84
2023/05/19 00:51:41;;;;;;;10.00;9.23;;;13.40;99.90;;;;;;4874655;29;20579;-85
2023/05/19 00:54:15;;;;;;;10.13;9.63;;;13.40;99.90;;;;;;4862499;29;20552;-86
2023/05/19 00:56:58;;;;;;;10.33;9.73;;;13.40;99.90;;;;;;4879579;29;20490;-85
2023/05/19 00:59:55;;;;;;;10.20;9.47;;;13.40;99.90;;;;;;4874354;29;20474;-84
2023/05/19 01:05:44;;;;;;;9.27;8.80;;;13.30;99.90;;;;;;4875634;29;20474;-84
2023/05/19 01:08:40;;;;;;;8.87;8.47;;;13.40;99.90;;;;;;4860498;29;20475;-85
2023/05/19 01:11:51;;;;;;;9.13;8.63;;;13.30;99.90;;;;;;4872725;29;20538;-85
2023/05/19 01:14:30;;;;;;;8.93;8.40;;;13.20;99.90;;;;;;4841653;29;20478;-83
2023/05/19 01:17:29;;;;;;;10.10;9.40;;;13.20;99.90;;;;;;4874801;29;20532;-86
2023/05/19 01:20:20;;;;;;;9.93;9.47;;;13.20;99.90;;;;;;4875154;29;20576;-85
2023/05/19 01:23:38;;;;;;;10.17;9.57;;;13.10;99.90;;;;;;4871028;29;20473;-84
2023/05/19 01:26:48;;;;;;;9.70;8.97;;;13.10;99.90;;;;;;4876036;29;20476;-85
2023/05/19 01:30:02;;;;;;;10.40;9.70;;;13.10;99.90;;;;;;4873013;29;20822;-85
2023/05/19 01:33:20;;;;;;;9.10;8.80;;;13.10;99.90;;;;;;4873110;29;20478;-83
2023/05/19 01:36:10;;;;;;;9.70;9.37;;;13.10;99.90;;;;;;4878428;29;20464;-84
2023/05/19 01:39:15;;;;;;;9.53;8.97;;;13.10;99.90;;;;;;4879286;29;20472;-86
2023/05/19 01:42:07;;;;;;;10.20;9.70;;;13.10;99.90;;;;;;4878709;29;20560;-85
2023/05/19 01:45:15;;;;;;;9.57;9.17;;;13.10;99.90;;;;;;4875027;29;20465;-88
2023/05/19 01:50:45;;;;;;;9.50;9.00;;;13.10;99.90;;;;;;4883698;29;20550;-84
2023/05/19 01:53:31;;;;;;;9.97;9.47;;;13.10;99.90;;;;;;4879898;29;20512;-86
2023/05/19 01:56:28;;;;;;;9.23;8.73;;;13.00;99.90;;;;;;4860837;29;20478;-86
2023/05/19 01:59:49;;;;;;;9.40;8.60;;;13.00;99.90;;;;;;4878708;29;20472;-86
2023/05/19 02:02:38;;;;;;;8.83;8.43;;;13.00;99.90;;;;;;4881786;29;21023;-86
2023/05/19 02:05:13;;;;;;;10.57;9.47;;;13.00;99.90;;;;;;4881986;29;20542;-87
2023/05/19 02:08:11;;;;;;;10.10;9.50;;;13.00;99.90;;;;;;4880980;29;20921;-87
2023/05/19 02:13:43;;;;;;;9.70;9.10;;;13.00;99.90;;;;;;4861552;29;20484;-85
2023/05/19 02:16:31;;;;;;;9.00;8.70;;;13.00;99.90;;;;;;4875858;29;20480;-85
2023/05/19 02:19:02;;;;;;;9.10;8.70;;;12.90;99.90;;;;;;4877051;29;20470;-85
2023/05/19 02:21:37;;;;;;;8.70;8.30;;;12.90;99.90;;;;;;4876222;29;20566;-85
2023/05/19 02:24:11;;;;;;;10.30;9.50;;;12.90;99.90;;;;;;4860795;29;20482;-85
2023/05/19 02:26:47;;;;;;;9.10;8.70;;;12.90;99.90;;;;;;4876232;29;20501;-85
2023/05/19 02:29:24;;;;;;;9.40;9.00;;;12.90;99.90;;;;;;4877115;29;20971;-85
2023/05/19 02:32:01;;;;;;;9.80;9.20;;;12.80;99.90;;;;;;4873442;29;20448;-85
2023/05/19 02:34:50;;;;;;;9.57;9.00;;;12.80;99.90;;;;;;4878154;29;20461;-86
2023/05/19 02:37:29;;;;;;;9.33;8.90;;;12.80;99.90;;;;;;4877499;29;20493;-83
2023/05/19 02:40:15;;;;;;;10.30;9.60;;;12.90;99.90;;;;;;4879266;29;20476;-85
2023/05/19 02:43:09;;;;;;;10.23;9.43;;;12.90;99.90;;;;;;4876889;29;20458;-86
2023/05/19 02:46:04;;;;;;;10.50;10.00;;;12.90;99.90;;;;;;4876912;29;20476;-86
2023/05/19 02:48:56;;;;;;;9.57;9.17;;;12.90;99.90;;;;;;4875205;29;20456;-86
2023/05/19 02:51:44;;;;;;;10.17;9.50;;;12.90;99.90;;;;;;4876312;29;20516;-86
2023/05/19 02:54:26;;;;;;;10.20;9.70;;;12.90;99.90;;;;;;4878035;29;20551;-86
2023/05/19 03:00:49;;;;;;;10.67;9.87;;;12.80;99.90;;;;;;4876288;29;20470;-85
2023/05/19 03:03:27;;;;;;;10.00;9.50;;;12.80;99.90;;;;;;4874255;29;21059;-84
2023/05/19 03:12:52;;;;;;;10.03;9.53;;;12.90;99.90;;;;;;4876041;29;20520;-86
2023/05/19 03:15:45;;;;;;;9.77;9.27;;;12.80;99.90;;;;;;4874492;29;20465;-86
2023/05/19 03:18:48;;;;;;;;;;;;;;;;;;;;;
2023/05/19 03:21:48;;;;;;;10.27;9.67;;;12.80;99.90;;;;;;4870957;29;20552;-85
2023/05/19 03:24:46;;;;;;;10.83;10.23;;;12.80;99.90;;;;;;4859407;29;21589;-84
2023/05/19 03:27:32;;;;;;;10.90;10.40;;;12.80;99.90;;;;;;4879407;29;20497;-85
2023/05/19 03:30:38;;;;;;;10.13;9.70;;;12.80;99.90;;;;;;4876630;29;20489;-85
2023/05/19 03:33:20;;;;;;;10.00;9.60;;;12.70;99.90;;;;;;4875327;29;20468;-85
2023/05/19 03:36:03;;;;;;;9.93;9.43;;;12.80;99.90;;;;;;4875475;29;20481;-84
2023/05/19 03:41:41;;;;;;;10.00;9.60;;;12.70;99.90;;;;;;4874536;29;20547;-84
2023/05/19 03:44:15;;;;;;;9.90;9.40;;;12.70;99.90;;;;;;4876064;29;20539;-82
2023/05/19 03:46:47;;;;;;;10.20;9.50;;;12.70;99.90;;;;;;4876824;29;20501;-84
2023/05/19 03:49:35;;;;;;;11.00;10.30;;;12.70;99.90;;;;;;4876509;29;20510;-84
2023/05/19 03:52:20;;;;;;;10.27;9.70;;;12.70;99.90;;;;;;4878081;29;20486;-82
2023/05/19 03:54:56;;;;;;;10.93;10.33;;;12.70;99.90;;;;;;4874878;29;20464;-82
2023/05/19 03:57:32;;;;;;;10.30;9.80;;;12.70;99.90;;;;;;4874113;29;20557;-81
2023/05/19 04:00:13;;;;;;;10.10;9.70;;;12.70;99.90;;;;;;4877533;29;20454;-82
2023/05/19 04:02:52;;;;;;;10.17;9.77;;;12.60;99.90;;;;;;4865247;29;20488;-85
2023/05/19 04:05:48;;;;;;;9.97;9.47;;;12.70;99.90;;;;;;4873217;29;20465;-84
2023/05/19 04:08:24;;;;;;;10.23;9.40;;;12.70;99.90;;;;;;4872005;29;20862;-84
2023/05/19 04:11:01;;;;;;;10.47;9.50;;;12.70;99.90;;;;;;4872206;29;20544;-84
2023/05/19 04:13:54;;;;;;;11.00;10.20;;;12.70;99.90;;;;;;4869431;29;21089;-86
2023/05/19 04:16:49;;;;;;;10.50;10.10;;;12.70;99.90;;;;;;4876243;29;20568;-83
2023/05/19 04:23:02;;;;;;;12.00;11.17;;;12.70;99.90;;;;;;4885585;29;20597;-85
2023/05/19 04:26:00;;;;;;;11.20;10.67;;;12.70;99.90;;;;;;4891387;29;20560;-84
2023/05/19 04:28:53;;;;;;;10.97;10.50;;;12.60;99.90;;;;;;4883441;29;20457;-83
2023/05/19 04:31:52;;;;;;;10.60;10.20;;;12.60;99.90;;;;;;4881547;29;20464;-84
2023/05/19 04:34:52;;;;;;;12.40;11.60;;;12.60;99.90;;;;;;4882545;29;20465;-83
2023/05/19 04:37:37;;;;;;;11.17;10.67;;;12.70;99.90;;;;;;4884091;29;20486;-85
2023/05/19 04:40:19;;;;;;;12.20;11.53;;;12.60;99.90;;;;;;4881514;29;20460;-85
2023/05/19 04:46:14;;;;;;;12.00;11.40;;;12.70;99.90;;;;;;4883611;29;20985;-85
2023/05/19 04:49:06;;;;;;;11.73;11.23;;;12.70;99.90;;;;;;4882635;29;20458;-86
2023/05/19 04:52:06;;;;;;;12.10;11.40;;;12.70;99.90;;;;;;4882515;29;20515;-84
2023/05/19 04:55:03;;;;;;;12.00;11.30;;;12.80;99.90;;;;;;4881920;29;20471;-84
2023/05/19 04:57:54;;;;;;;12.60;11.80;;;12.80;99.90;;;;;;4880829;29;21003;-84
2023/05/19 05:00:38;;;;;;;11.33;10.93;;;12.80;99.90;;;;;;4883483;29;20471;-85
2023/05/19 05:03:33;;;;;;;12.67;12.03;;;12.80;99.90;;;;;;4866951;29;20545;-84
2023/05/19 05:06:46;;;;;;;13.87;12.87;;;12.80;99.90;;;;;;4884312;29;20476;-84
2023/05/19 05:15:23;;;;;;;13.77;11.80;;;12.80;99.90;;;;;;4883717;29;20456;-84
2023/05/19 05:18:20;;;;;;;12.20;11.70;;;12.80;99.90;;;;;;4882367;29;20488;-84
2023/05/19 05:21:24;;;;;;;12.73;12.10;;;12.80;99.90;;;;;;4881095;29;20454;-84
2023/05/19 05:27:43;;;;;;;12.17;11.67;;;12.90;99.90;;;;;;4880761;29;20690;-84
2023/05/19 05:30:34;;;;;;;13.10;12.30;;;12.90;99.90;;;;;;4861434;29;20470;-84
2023/05/19 05:33:44;;;;;;;12.43;11.83;;;12.90;99.90;;;;;;4880545;29;20459;-84
2023/05/19 05:36:34;;;;;;;12.37;11.77;;;12.90;99.90;;;;;;4881964;29;20580;-84
2023/05/19 05:39:19;;;;;;;12.10;11.57;;;12.90;99.90;;;;;;4880961;29;20465;-83
2023/05/19 05:41:55;;;;;;;12.30;11.43;;;13.00;99.90;;;;;;4880476;29;20559;-84
2023/05/19 05:44:49;;;;;;;12.50;11.90;;;13.10;99.90;;;;;;4881904;29;20995;-84
2023/05/19 05:47:37;;;;;;;12.27;11.67;;;13.10;99.90;;;;;;4881459;29;20576;-84
2023/05/19 05:50:43;;;;;;;13.67;12.87;;;13.20;99.90;;;;;;4876543;29;20466;-84
2023/05/19 05:53:35;;;;;;;12.87;12.17;;;13.30;99.90;;;;;;4865772;29;20461;-84
2023/05/19 05:59:26;;;;;;;12.40;12.00;;;13.40;99.90;;;;;;4879732;29;20467;-84
2023/05/19 06:02:09;;;;;;;12.47;12.07;;;13.40;99.90;;;;;;4878444;29;20455;-83
2023/05/19 06:07:51;;;;;;;13.67;12.67;;;13.50;99.90;;;;;;4871525;29;20493;-83
2023/05/19 06:10:54;;;;;;;12.77;12.07;;;13.60;99.90;;;;;;4881175;29;20457;-84
2023/05/19 06:13:45;;;;;;;12.87;12.17;;;13.70;99.90;;;;;;4882351;29;20459;-82
2023/05/19 06:16:28;;;;;;;12.87;12.27;;;13.70;99.90;;;;;;4879384;29;20500;-84
2023/05/19 06:19:09;;;;;;;13.80;12.90;;;13.70;99.90;;;;;;4879424;29;20466;-83
2023/05/19 06:21:49;;;;;;;13.40;12.73;;;13.70;99.90;;;;;;4856857;29;20529;-84
2023/05/19 06:24:35;;;;;;;13.63;12.97;;;13.80;99.90;;;;;;4881062;29;20496;-84
2023/05/19 06:27:07;;;;;;;13.10;12.50;;;13.80;99.90;;;;;;4877922;29;20494;-83
2023/05/19 06:29:35;;;;;;;14.23;13.50;;;13.90;99.90;;;;;;4881651;29;20909;-83
2023/05/19 06:32:28;;;;;;;14.40;13.50;;;14.00;99.90;;;;;;4881802;29;20472;-84
2023/05/19 06:35:25;;;;;;;13.30;12.60;;;14.20;99.90;;;;;;4885047;29;20466;-82
2023/05/19 06:38:17;;;;;;;13.40;12.80;;;14.30;99.90;;;;;;4883166;29;20512;-83
2023/05/19 06:41:15;;;;;;;13.13;12.57;;;14.50;99.90;;;;;;4886343;29;20489;-83
2023/05/19 06:44:00;;;;;;;13.90;13.20;;;14.60;99.90;;;;;;4870149;29;20498;-83
2023/05/19 06:46:41;;;;;;;14.00;13.40;;;14.70;99.90;;;;;;4884600;29;20471;-83
2023/05/19 06:49:53;;;;;;;13.77;13.07;;;14.70;99.90;;;;;;4880631;29;20680;-83
2023/05/19 06:52:38;;;;;;;13.90;13.00;;;14.80;99.90;;;;;;4879356;29;20467;-84
2023/05/19 06:55:18;;;;;;;14.30;13.63;;;14.90;99.90;;;;;;4885317;29;20462;-84
2023/05/19 06:58:20;;;;;;;15.87;14.50;;;14.90;99.90;;;;;;4879532;29;20486;-83
2023/05/19 07:01:11;;;;;;;15.90;14.60;;;15.00;99.90;;;;;;4881680;29;20479;-84
2023/05/19 07:03:56;;;;;;;14.23;13.63;;;15.10;99.90;;;;;;4881420;29;20510;-83
2023/05/19 07:07:10;;;;;;;14.10;13.40;;;15.10;99.90;;;;;;4882078;29;20455;-84
2023/05/19 07:15:59;;;;;;;14.57;13.97;;;15.40;99.90;;;;;;4885384;29;21010;-84
2023/05/19 07:18:39;;;;;;;15.13;14.30;;;15.50;99.90;;;;;;4880989;29;20486;-84
2023/05/19 07:21:25;;;;;;;14.43;13.93;;;15.50;99.90;;;;;;4870349;29;20470;-84
2023/05/19 07:24:21;;;;;;;15.07;14.20;;;15.50;99.90;;;;;;4884200;29;20503;-84
2023/05/19 07:27:03;;;;;;;15.60;14.50;;;15.50;99.90;;;;;;4845663;29;21017;-84
2023/05/19 07:30:00;;;;;;;15.50;14.70;;;15.40;99.90;;;;;;4884254;29;20467;-84
2023/05/19 07:33:25;;;;;;;15.57;14.60;;;15.30;99.90;;;;;;4881383;29;20463;-84
2023/05/19 07:36:12;;;;;;;16.13;15.13;;;15.40;99.90;;;;;;4883146;29;20455;-83
2023/05/19 07:41:54;;;;;;;15.53;14.73;;;15.30;99.90;;;;;;4881761;29;20471;-84
2023/05/19 07:44:44;;;;;;;16.10;15.03;;;15.40;99.90;;;;;;4869547;29;20573;-84
2023/05/19 07:47:35;;;;;;;15.30;14.70;;;15.40;99.90;;;;;;4881721;29;20492;-84
2023/05/19 07:50:31;;;;;;;15.53;14.43;;;15.50;99.90;;;;;;4878908;29;20467;-84
2023/05/19 07:53:18;;;;;;;15.60;14.90;;;15.50;99.90;;;;;;4881348;29;20977;-84
2023/05/19 07:56:25;;;;;;;15.77;14.90;;;15.50;99.90;;;;;;4884294;29;20457;-84
2023/05/19 07:59:18;;;;;;;15.57;14.73;;;15.50;99.90;;;;;;4884681;29;20455;-84
2023/05/19 08:02:26;;;;;;;15.80;15.20;;;15.60;99.90;;;;;;4882017;29;20934;-84
2023/05/19 08:05:04;;;;;;;15.40;14.60;;;15.60;99.90;;;;;;4882528;29;20490;-84
2023/05/19 08:07:58;;;;;;;16.10;15.20;;;15.60;99.90;;;;;;4880773;29;20503;-84
2023/05/19 08:10:41;;;;;;;15.00;14.40;;;15.50;99.90;;;;;;4882994;29;20563;-85
2023/05/19 08:13:35;;;;;;;;;;;;;;;;;;;;;
2023/05/19 08:16:44;;;;;;;15.33;14.50;;;15.50;99.90;;;;;;4874029;29;20490;-83
2023/05/19 08:19:41;;;;;;;16.20;15.37;;;15.50;99.90;;;;;;4882911;29;20612;-84
2023/05/19 08:22:31;;;;;;;15.13;14.53;;;15.50;99.90;;;;;;4882329;29;20973;-84
2023/05/19 08:25:21;;;;;;;15.13;14.33;;;15.50;99.90;;;;;;4868942;29;20580;-84
2023/05/19 08:28:15;;;;;;;15.60;14.90;;;15.50;99.90;;;;;;4883345;29;20488;-84
2023/05/19 08:31:07;;;;;;;15.00;14.30;;;15.60;99.90;;;;;;4879754;29;20448;-84
2023/05/19 08:34:04;;;;;;;15.13;14.00;;;15.50;99.90;;;;;;4883504;29;21053;-84
2023/05/19 08:36:56;;;;;;;15.33;14.70;;;15.50;99.90;;;;;;4865161;29;20482;-84
2023/05/19 08:40:03;;;;;;;15.77;15.13;;;15.50;99.90;;;;;;4875028;29;20468;-84
2023/05/19 08:45:47;;;;;;;16.77;15.47;;;15.60;99.90;;;;;;4887457;29;20555;-84
2023/05/19 08:48:43;;;;;;;15.63;14.80;;;15.60;99.90;;;;;;4880536;29;20460;-84
2023/05/19 08:51:41;;;;;;;15.43;14.80;;;15.60;99.90;;;;;;4865992;29;20464;-85
2023/05/19 08:54:47;;;;;;;14.83;14.27;;;15.60;99.90;;;;;;4881029;29;20534;-85
2023/05/19 08:57:29;;;;;;;15.50;14.70;;;15.70;99.90;;;;;;4884755;29;20633;-84
2023/05/19 09:00:29;;;;;;;15.43;14.83;;;15.70;99.90;;;;;;4882620;29;20459;-84
2023/05/19 09:03:29;;;;;;;15.53;14.73;;;15.70;99.90;;;;;;4881943;29;21013;-85
2023/05/19 09:12:20;;;;;;;14.93;14.13;;;15.80;99.90;;;;;;4880043;29;20474;-84
2023/05/19 09:15:10;;;;;;;14.77;14.17;;;15.80;99.90;;;;;;4882726;29;20779;-84
2023/05/19 09:18:22;;;;;;;14.90;14.23;;;15.80;99.90;;;;;;4882817;29;20492;-84
2023/05/19 09:21:06;;;;;;;13.73;13.33;;;15.80;99.90;;;;;;4883226;29;20491;-85
2023/05/19 09:24:26;;;;;;;14.57;13.93;;;15.80;99.90;;;;;;4880940;29;20481;-85
2023/05/19 09:27:28;;;;;;;15.23;14.13;;;15.80;99.90;;;;;;4882580;29;20575;-84
2023/05/19 09:30:24;;;;;;;14.97;14.30;;;15.80;99.90;;;;;;4881808;29;20508;-85
2023/05/19 09:33:27;;;;;;;13.90;13.30;;;15.70;99.90;;;;;;4881009;29;20488;-84
2023/05/19 09:36:15;;;;;;;14.23;13.60;;;15.70;99.90;;;;;;4881489;29;20886;-82
2023/05/19 09:39:15;;;;;;;14.40;13.60;;;15.70;99.90;;;;;;4882198;29;20965;-83
2023/05/19 09:42:18;;;;;;;13.57;12.97;;;15.60;99.90;;;;;;4882991;29;20477;-84
2023/05/19 09:45:13;;;;;;;14.37;13.60;;;15.60;99.90;;;;;;4884245;29;20498;-85
2023/05/19 09:51:06;;;;;;;13.80;12.93;;;15.70;99.90;;;;;;4878503;29;20479;-85
2023/05/19 09:57:35;;;;;;;13.70;13.00;;;15.70;99.90;;;;;;4871730;29;20495;-85
2023/05/19 10:09:40;;;;;;;14.37;13.57;;;15.70;99.90;;;;;;4882810;29;20468;-85
2023/05/19 10:12:32;;;;;;;14.43;13.73;;;15.70;99.90;;;;;;4879268;29;20464;-84
2023/05/19 10:15:16;;;;;;;14.47;13.80;;;15.70;99.90;;;;;;4869103;29;20991;-84
2023/05/19 10:18:22;;;;;;;14.23;13.43;;;15.60;99.90;;;;;;4884090;29;20953;-85
2023/05/19 10:21:31;;;;;;;14.00;13.10;;;15.70;99.90;;;;;;4889994;29;20455;-83
2023/05/19 10:24:37;;;;;;;13.73;12.80;;;15.60;99.90;;;;;;4884622;29;20462;-84
2023/05/19 10:27:27;;;;;;;14.10;13.40;;;15.60;99.90;;;;;;4885043;29;20497;-84
2023/05/19 10:30:16;;;;;;;13.90;13.30;;;15.60;99.90;;;;;;4882301;29;20462;-83
2023/05/19 10:32:53;;;;;;;13.87;13.17;;;15.70;99.90;;;;;;4881537;29;20547;-85
2023/05/19 10:36:10;;;;;;;13.83;13.23;;;15.60;99.90;;;;;;4884037;29;20467;-84
2023/05/19 10:39:12;;;;;;;14.23;13.63;;;15.60;99.90;;;;;;4882539;29;20559;-87
2023/05/19 10:42:18;;;;;;;14.03;13.20;;;15.70;99.90;;;;;;4884419;29;20809;-84
2023/05/19 10:45:12;;;;;;;14.90;14.10;;;15.70;99.90;;;;;;4884265;29;20482;-84
2023/05/19 10:47:58;;;;;;;12.97;12.47;;;15.70;99.90;;;;;;4884935;29;20484;-84
2023/05/19 10:50:51;;;;;;;13.27;12.67;;;15.70;99.90;;;;;;4885138;29;20455;-84
2023/05/19 10:53:37;;;;;;;13.13;12.63;;;15.60;99.90;;;;;;4884808;29;20464;-84
2023/05/19 10:56:35;;;;;;;13.40;12.90;;;15.70;99.90;;;;;;4886325;29;20457;-86
2023/05/19 10:59:46;;;;;;;13.33;12.73;;;15.70;99.90;;;;;;4880184;29;20462;-84
2023/05/19 11:03:13;;;;;;;14.03;13.50;;;15.60;99.90;;;;;;4883367;29;20460;-84
2023/05/19 11:05:54;;;;;;;13.60;12.90;;;15.60;99.90;;;;;;4880316;29;20502;-85
2023/05/19 11:08:41;;;;;;;13.00;12.50;;;15.60;99.90;;;;;;4882528;29;20462;-82
2023/05/19 11:11:47;;;;;;;14.90;14.10;;;15.60;99.90;;;;;;4866561;29;20467;-87
2023/05/19 11:14:22;;;;;;;14.20;13.60;;;15.60;99.90;;;;;;4886954;29;20460;-84
2023/05/19 11:16:53;;;;;;;13.30;12.70;;;15.60;99.90;;;;;;4885477;29;20493;-84
2023/05/19 11:19:27;;;;;;;13.60;13.10;;;15.60;99.90;;;;;;4883094;29;20459;-85
2023/05/19 11:22:10;;;;;;;12.97;12.37;;;15.60;99.90;;;;;;4885890;29;20463;-84
2023/05/19 11:24:44;;;;;;;13.93;13.23;;;15.60;99.90;;;;;;4880998;29;20480;-84
2023/05/19 11:27:36;;;;;;;14.70;13.80;;;15.60;99.90;;;;;;4867236;29;20872;-84
2023/05/19 11:33:50;;;;;;;13.93;13.50;;;15.70;99.90;;;;;;4863106;29;20483;-83
2023/05/19 11:36:38;;;;;;;15.07;14.40;;;15.70;99.90;;;;;;4883119;29;20453;-84
2023/05/19 11:39:31;;;;;;;15.23;14.40;;;15.70;99.90;;;;;;4883266;29;20478;-85
2023/05/19 11:42:22;;;;;;;15.00;14.03;;;15.70;99.90;;;;;;4885202;29;20444;-84
2023/05/19 11:45:27;;;;;;;15.20;14.60;;;15.80;99.90;;;;;;4885138;29;20486;-85
2023/05/19 11:48:11;;;;;;;16.07;15.13;;;15.70;99.90;;;;;;4883144;29;20487;-84
2023/05/19 11:50:42;;;;;;;14.40;13.80;;;15.70;99.90;;;;;;4883757;29;20532;-85
2023/05/19 11:53:18;;;;;;;16.30;15.33;;;15.80;99.90;;;;;;4884830;29;20548;-84
2023/05/19 11:55:48;;;;;;;16.27;14.80;;;15.70;99.90;;;;;;4868723;29;20489;-83
2023/05/19 11:58:17;;;;;;;16.20;15.20;;;15.80;99.90;;;;;;4885415;29;20849;-83
2023/05/19 12:00:46;;;;;;;15.77;14.90;;;15.70;99.90;;;;;;4885106;29;20468;-84
2023/05/19 12:03:25;;;;;;;14.70;14.20;;;15.70;99.90;;;;;;4884231;29;20471;-85
2023/05/19 12:05:54;;;;;;;14.90;14.10;;;15.70;99.90;;;;;;4883824;29;20847;-83
2023/05/19 12:08:22;;;;;;;14.80;14.03;;;15.60;99.90;;;;;;4885424;29;20826;-84
2023/05/19 12:10:52;;;;;;;14.90;14.20;;;15.60;99.90;;;;;;4883489;29;20511;-84
2023/05/19 12:13:22;;;;;;;14.07;13.20;;;15.60;99.90;;;;;;4886706;29;20459;-84
2023/05/19 12:15:51;;;;;;;14.87;14.03;;;15.60;99.90;;;;;;4884041;29;20464;-84
2023/05/19 12:18:21;;;;;;;14.13;13.43;;;15.70;99.90;;;;;;4880650;29;20488;-84
2023/05/19 12:20:50;;;;;;;14.97;14.20;;;15.70;99.90;;;;;;4881713;29;20468;-83
2023/05/19 12:23:18;;;;;;;14.87;14.00;;;15.70;99.90;;;;;;4881549;29;20459;-85
2023/05/19 12:25:48;;;;;;;14.57;13.80;;;15.70;99.90;;;;;;4881530;29;20528;-85
2023/05/19 12:28:24;;;;;;;15.40;14.60;;;15.70;99.90;;;;;;4884111;29;20479;-84
2023/05/19 12:30:54;;;;;;;15.23;14.20;;;15.60;99.90;;;;;;4877706;29;20465;-84
2023/05/19 12:33:37;;;;;;;14.77;14.00;;;15.70;99.90;;;;;;4866375;29;20961;-84
2023/05/19 12:36:08;;;;;;;14.33;13.63;;;15.60;99.90;;;;;;4883142;29;20547;-84
2023/05/19 12:38:38;;;;;;;14.30;13.60;;;15.60;99.90;;;;;;4881618;29;20471;-83
2023/05/19 12:44:21;;;;;;;14.60;13.87;;;15.50;99.90;;;;;;4884135;29;20547;-83
2023/05/19 12:46:54;;;;;;;14.50;13.70;;;15.50;99.90;;;;;;4864594;29;20495;-84
2023/05/19 12:49:27;;;;;;;15.73;14.90;;;15.50;99.90;;;;;;4882963;29;21006;-84
2023/05/19 12:52:17;;;;;;;14.53;13.83;;;15.50;99.90;;;;;;4883184;29;20467;-84
2023/05/19 12:54:46;;;;;;;14.67;13.87;;;15.40;99.90;;;;;;4865738;29;20542;-83
2023/05/19 12:57:16;;;;;;;15.50;14.60;;;15.40;99.90;;;;;;4883281;29;21037;-84
2023/05/19 12:59:46;;;;;;;14.43;13.63;;;15.40;99.90;;;;;;4886179;29;20459;-84
2023/05/19 13:02:15;;;;;;;14.73;13.50;;;15.40;99.90;;;;;;4883123;29;20451;-85
2023/05/19 13:04:44;;;;;;;14.37;13.80;;;15.30;99.90;;;;;;4880704;29;20462;-83
2023/05/19 13:07:16;;;;;;;15.40;14.30;;;15.30;99.90;;;;;;4884205;29;20563;-84
2023/05/19 13:09:53;;;;;;;13.90;13.30;;;15.40;99.90;;;;;;4883124;29;20459;-84
2023/05/19 13:12:21;;;;;;;14.20;13.70;;;15.40;99.90;;;;;;4882861;29;20560;-84
2023/05/19 13:14:49;;;;;;;14.20;13.57;;;15.50;99.90;;;;;;4882195;29;20532;-83
2023/05/19 13:17:22;;;;;;;14.93;13.90;;;15.50;99.90;;;;;;4883258;29;20550;-84
2023/05/19 13:19:52;;;;;;;14.60;13.90;;;15.60;99.90;;;;;;4883756;29;20471;-84
2023/05/19 13:22:24;;;;;;;13.90;13.10;;;15.50;99.90;;;;;;4883847;29;20459;-84
2023/05/19 13:24:57;;;;;;;13.90;13.33;;;15.60;99.90;;;;;;4881708;29;20468;-84
2023/05/19 13:33:51;;;;;;;14.70;13.93;;;15.70;99.90;;;;;;4866587;29;20466;-84
2023/05/19 13:36:53;;;;;;;15.20;14.50;;;15.90;99.90;;;;;;4880190;29;20485;-84
2023/05/19 13:39:32;;;;;;;15.53;14.53;;;15.80;99.90;;;;;;4881475;29;20499;-85
2023/05/19 13:42:38;;;;;;;15.30;14.60;;;15.90;99.90;;;;;;4881141;29;20456;-85
2023/05/19 13:51:32;;;;;;;13.90;13.50;;;15.80;99.90;;;;;;4881966;29;20560;-85
2023/05/19 13:57:37;;;;;;;16.07;14.87;;;15.80;99.90;;;;;;4884628;29;20836;-84
2023/05/19 14:00:25;;;;;;;15.77;14.67;;;15.70;99.90;;;;;;4882667;29;20465;-83
2023/05/19 14:03:18;;;;;;;14.50;13.87;;;15.70;99.90;;;;;;4890350;29;20474;-86
2023/05/19 14:06:29;;;;;;;15.10;14.30;;;15.70;99.90;;;;;;4883013;29;21040;-84
2023/05/19 14:09:41;;;;;;;14.50;13.83;;;15.70;99.90;;;;;;4885651;29;20471;-84
2023/05/19 14:13:09;;;;;;;15.80;14.90;;;15.50;99.90;;;;;;4885451;29;20452;-84
2023/05/19 14:16:13;;;;;;;16.47;14.73;;;15.60;99.90;;;;;;4883727;29;20472;-85
2023/05/19 14:18:52;;;;;;;15.60;14.57;;;15.60;99.90;;;;;;4883586;29;20492;-84
2023/05/19 14:21:36;;;;;;;15.53;14.70;;;15.60;99.90;;;;;;4887166;29;20466;-85
2023/05/19 14:27:38;;;;;;;15.07;14.07;;;15.60;99.90;;;;;;4883793;29;20764;-84
2023/05/19 14:31:05;;;;;;;15.27;14.07;;;15.60;99.90;;;;;;4880205;29;20481;-84
2023/05/19 14:33:55;;;;;;;14.97;14.07;;;15.70;99.90;;;;;;4896623;29;20455;-85
2023/05/19 14:36:57;;;;;;;15.63;14.57;;;15.70;99.90;;;;;;4889518;29;20607;-85
2023/05/19 14:40:31;;;;;;;14.73;13.73;;;15.70;99.90;;;;;;4890199;29;20460;-84
2023/05/19 14:43:26;;;;;;;15.77;14.80;;;15.80;99.90;;;;;;4875617;29;20464;-84
2023/05/19 14:46:16;;;;;;;15.50;14.50;;;15.80;99.90;;;;;;4883606;29;20484;-84
2023/05/19 14:48:59;;;;;;;14.83;14.10;;;15.90;99.90;;;;;;4886775;29;20805;-82
2023/05/19 14:51:43;;;;;;;14.10;13.33;;;15.90;99.90;;;;;;4886978;29;20452;-84
2023/05/19 15:03:58;;;;;;;15.03;14.43;;;15.90;99.90;;;;;;4850021;29;20956;-84
2023/05/19 15:06:45;;;;;;;15.23;14.50;;;15.90;99.90;;;;;;4886410;29;20546;-84
2023/05/19 15:10:07;;;;;;;15.23;14.40;;;15.80;99.90;;;;;;4884799;29;20474;-83
2023/05/19 15:13:17;;;;;;;15.13;14.03;;;15.90;99.90;;;;;;4888048;29;20468;-85
2023/05/19 15:16:29;;;;;;;16.07;14.97;;;15.90;99.90;;;;;;4847429;29;21035;-84
2023/05/19 15:19:25;;;;;;;14.80;13.90;;;15.80;99.90;;;;;;4871315;29;20552;-84
2023/05/19 15:22:09;;;;;;;15.23;14.43;;;15.80;99.90;;;;;;4870503;29;20460;-85
2023/05/19 15:25:09;;;;;;;14.90;13.87;;;15.80;99.90;;;;;;4883416;29;20522;-84
2023/05/19 15:27:51;;;;;;;15.47;14.67;;;15.70;99.90;;;;;;4883493;29;21184;-85
2023/05/19 15:30:51;;;;;;;14.50;14.00;;;15.70;99.90;;;;;;4882541;29;20474;-84
2023/05/19 15:34:03;;;;;;;15.53;14.73;;;15.70;99.90;;;;;;4885328;29;20526;-84
2023/05/19 15:37:01;;;;;;;15.67;14.60;;;15.70;99.90;;;;;;4882252;29;20569;-85
2023/05/19 15:39:50;;;;;;;14.30;13.70;;;15.70;99.90;;;;;;4882302;29;20480;-84
2023/05/19 15:42:33;;;;;;;14.80;13.90;;;15.70;99.90;;;;;;4886800;29;20508;-84
2023/05/19 15:45:14;;;;;;;14.77;13.90;;;15.70;99.90;;;;;;4885212;29;20456;-84
2023/05/19 15:50:56;;;;;;;16.00;15.00;;;15.70;99.90;;;;;;4863787;29;20474;-84
2023/05/19 15:56:54;;;;;;;16.07;15.20;;;15.70;99.90;;;;;;4875584;29;20464;-84
2023/05/19 15:59:38;;;;;;;15.10;14.50;;;15.70;99.90;;;;;;4882567;29;21000;-84
2023/05/19 16:05:09;;;;;;;14.67;14.07;;;15.70;99.90;;;;;;4865592;29;20481;-84
2023/05/19 16:11:17;;;;;;;14.83;14.13;;;15.80;99.90;;;;;;4880390;29;20488;-86
2023/05/19 16:16:53;;;;;;;15.20;14.40;;;15.80;99.90;;;;;;4884587;29;20484;-84
2023/05/19 16:19:22;;;;;;;15.80;15.13;;;15.80;99.90;;;;;;4883724;29;20870;-83
2023/05/19 16:21:54;;;;;;;15.80;14.87;;;15.80;99.90;;;;;;4883266;29;20542;-84
2023/05/19 16:24:24;;;;;;;14.93;14.07;;;15.80;99.90;;;;;;4883204;29;20564;-84
2023/05/19 16:26:59;;;;;;;15.37;14.27;;;15.90;99.90;;;;;;4886281;29;20478;-84
2023/05/19 16:29:46;;;;;;;13.93;13.23;;;15.90;99.90;;;;;;4885741;29;20461;-84
2023/05/19 16:32:21;;;;;;;14.37;13.67;;;15.90;99.90;;;;;;4880888;29;20938;-84
2023/05/19 16:35:09;;;;;;;14.97;14.37;;;15.90;99.90;;;;;;4882249;29;20545;-84
2023/05/19 16:37:47;;;;;;;14.60;14.10;;;15.90;99.90;;;;;;4882453;29;20812;-84